createdAt,value
2023-01-12T00:02:15.424Z,102233.10
2023-01-12T00:04:43.691Z,102241.63
2023-01-12T00:07:13.737Z,102244.48
2023-01-12T00:09:41.762Z,102237.16
2023-01-12T00:12:12.552Z,102224.59
2023-01-12T00:14:41.289Z,102213.25
2023-01-12T00:17:10.175Z,102210.05
2023-01-12T00:19:39.900Z,102213.70
2023-01-12T00:22:12.735Z,102204.42
2023-01-12T00:24:45.625Z,102195.16
2023-01-12T00:27:16.251Z,102198.41
2023-01-12T00:29:44.434Z,102201.31
2023-01-12T00:32:22.421Z,102192.38
2023-01-12T00:34:50.231Z,102205.86
2023-01-12T00:37:17.964Z,102203.44
2023-01-12T00:39:56.799Z,102190.45
2023-01-12T00:42:47.551Z,102201.02
2023-01-12T00:45:24.874Z,102196.18
2023-01-12T00:47:54.595Z,102193.76
2023-01-12T00:50:23.323Z,102191.38
2023-01-12T00:52:51.082Z,102191.38
2023-01-12T00:55:18.729Z,102186.08
2023-01-12T00:57:46.770Z,102183.66
2023-01-12T01:00:15.089Z,102189.34
2023-01-12T01:02:42.813Z,102184.87
2023-01-12T01:05:10.770Z,102189.31
2023-01-12T01:07:39.295Z,102192.52
2023-01-12T01:10:07.721Z,102195.00
2023-01-12T01:12:35.420Z,102205.14
2023-01-12T01:15:03.367Z,102203.51
2023-01-12T01:17:31.103Z,102207.59
2023-01-12T01:19:58.888Z,102210.01
2023-01-12T01:22:26.640Z,102206.80
2023-01-12T01:24:54.544Z,102210.47
2023-01-12T01:27:22.503Z,102205.23
2023-01-12T01:29:50.173Z,102203.21
2023-01-12T01:32:17.865Z,102202.82
2023-01-12T01:34:47.482Z,102200.76
2023-01-12T01:37:15.188Z,102196.70
2023-01-12T01:39:42.998Z,102198.73
2023-01-12T01:42:29.018Z,102193.43
2023-01-12T01:45:00.010Z,102191.41
2023-01-12T01:47:37.551Z,102196.28
2023-01-12T01:50:13.495Z,102193.86
2023-01-12T01:52:46.336Z,102186.17
2023-01-12T01:55:24.594Z,102170.31
2023-01-12T01:57:54.839Z,102162.59
2023-01-12T02:00:24.307Z,102174.76
2023-01-12T02:02:53.618Z,102172.70
2023-01-12T02:05:26.731Z,102165.34
2023-01-12T02:07:54.960Z,102178.33
2023-01-12T02:10:23.229Z,102177.48
2023-01-12T02:13:09.977Z,102173.42
2023-01-12T02:16:22.873Z,102192.84
2023-01-12T02:19:15.970Z,102196.93
2023-01-12T02:22:29.905Z,102187.61
2023-01-12T02:25:38.296Z,102182.34
2023-01-12T02:28:20.991Z,102181.56
2023-01-12T02:31:07.386Z,102180.74
2023-01-12T02:33:50.256Z,102176.30
2023-01-12T02:36:43.398Z,102184.44
2023-01-12T02:39:27.315Z,102180.78
2023-01-12T02:42:24.691Z,102189.31
2023-01-12T02:45:27.254Z,102188.89
2023-01-12T02:48:13.753Z,102190.55
2023-01-12T02:50:50.374Z,102195.43
2023-01-12T02:53:25.467Z,102191.38
2023-01-12T02:55:54.251Z,102192.98
2023-01-12T02:58:25.463Z,102186.04
2023-01-12T03:00:57.465Z,102173.45
2023-01-12T03:03:26.552Z,102174.20
2023-01-12T03:06:00.884Z,102168.91
2023-01-12T03:08:31.475Z,102163.22
2023-01-12T03:11:07.829Z,102153.87
2023-01-12T03:13:38.320Z,102155.47
2023-01-12T03:16:07.879Z,102148.21
2023-01-12T03:18:39.416Z,102153.05
2023-01-12T03:21:13.844Z,102148.57
2023-01-12T03:23:48.364Z,102138.40
2023-01-12T03:26:20.531Z,102130.23
2023-01-12T03:28:53.905Z,102128.98
2023-01-12T03:31:23.147Z,102127.34
2023-01-12T03:33:51.523Z,102111.87
2023-01-12T03:36:24.995Z,102102.10
2023-01-12T03:39:25.730Z,102112.70
2023-01-12T03:41:57.767Z,102115.09
2023-01-12T03:44:50.935Z,102119.59
2023-01-12T03:47:38.028Z,102115.09
2023-01-12T03:50:29.808Z,102119.98
2023-01-12T03:52:58.004Z,102116.75
2023-01-12T03:55:31.040Z,102122.84
2023-01-12T03:57:59.093Z,102118.38
2023-01-12T04:00:28.788Z,102124.86
2023-01-12T04:03:25.938Z,102124.08
2023-01-12T04:05:53.585Z,102118.81
2023-01-12T04:08:21.459Z,102119.66
2023-01-12T04:10:49.323Z,102117.24
2023-01-12T04:13:16.955Z,102119.34
2023-01-12T04:15:44.684Z,102112.86
2023-01-12T04:18:13.578Z,102106.77
2023-01-12T04:20:41.776Z,102108.45
2023-01-12T04:23:09.540Z,102120.64
2023-01-12T04:25:37.855Z,102115.34
2023-01-12T04:28:05.925Z,102105.24
2023-01-12T04:30:34.902Z,102106.02
2023-01-12T04:33:09.271Z,102108.05
2023-01-12T04:35:37.024Z,102105.60
2023-01-12T04:38:09.462Z,102108.45
2023-01-12T04:40:37.126Z,102111.65
2023-01-12T04:43:09.614Z,102116.09
2023-01-12T04:45:41.053Z,102124.63
2023-01-12T04:48:13.888Z,102119.34
2023-01-12T04:50:42.603Z,102118.91
2023-01-12T04:53:12.233Z,102124.96
2023-01-12T04:55:42.533Z,102116.81
2023-01-12T04:58:10.921Z,102123.29
2023-01-12T05:00:38.639Z,102111.87
2023-01-12T05:03:06.324Z,102110.63
2023-01-12T05:05:34.849Z,102102.10
2023-01-12T05:08:22.688Z,102102.92
2023-01-12T05:10:55.531Z,102109.00
2023-01-12T05:13:24.840Z,102096.74
2023-01-12T05:15:52.531Z,102086.99
2023-01-12T05:18:20.591Z,102093.11
2023-01-12T05:20:48.447Z,102093.50
2023-01-12T05:23:16.167Z,102101.58
2023-01-12T05:25:44.011Z,102101.97
2023-01-12T05:28:11.795Z,102093.44
2023-01-12T05:30:39.594Z,102088.53
2023-01-12T05:33:07.341Z,102090.13
2023-01-12T05:35:35.100Z,102081.99
2023-01-12T05:38:02.781Z,102090.13
2023-01-12T05:40:30.582Z,102084.45
2023-01-12T05:43:17.124Z,102076.30
2023-01-12T05:45:44.913Z,102075.52
2023-01-12T05:48:13.058Z,102075.09
2023-01-12T05:50:40.765Z,102087.68
2023-01-12T05:53:08.848Z,102084.84
2023-01-12T05:55:38.797Z,102078.75
2023-01-12T05:58:06.485Z,102081.96
2023-01-12T06:00:34.278Z,102079.57
2023-01-12T06:03:04.001Z,102084.45
2023-01-12T06:05:31.696Z,102094.19
2023-01-12T06:08:00.230Z,102094.19
2023-01-12T06:10:28.018Z,102099.06
2023-01-12T06:13:14.626Z,102104.72
2023-01-12T06:15:42.386Z,102092.98
2023-01-12T06:18:10.269Z,102086.86
2023-01-12T06:20:37.915Z,102084.80
2023-01-12T06:23:08.944Z,102084.37
2023-01-12T06:25:36.556Z,102076.20
2023-01-12T06:28:06.746Z,102076.66
2023-01-12T06:30:34.532Z,102085.13
2023-01-12T06:33:03.471Z,102092.42
2023-01-12T06:35:31.090Z,102081.86
2023-01-12T06:37:59.140Z,102079.38
2023-01-12T06:40:26.848Z,102078.59
2023-01-12T06:42:54.504Z,102068.35
2023-01-12T06:45:22.149Z,102075.68
2023-01-12T06:47:50.661Z,102070.38
2023-01-12T06:50:18.547Z,102067.90
2023-01-12T06:52:46.263Z,102067.08
2023-01-12T06:55:14.115Z,102065.48
2023-01-12T06:57:42.000Z,102063.81
2023-01-12T07:00:10.606Z,102056.71
2023-01-12T07:02:38.340Z,102066.88
2023-01-12T07:05:06.816Z,102078.13
2023-01-12T07:07:34.592Z,102066.85
2023-01-12T07:10:02.323Z,102062.30
2023-01-12T07:12:30.138Z,102062.11
2023-01-12T07:15:00.034Z,102065.67
2023-01-12T07:17:27.701Z,102062.83
2023-01-12T07:19:55.340Z,102061.95
2023-01-12T07:22:23.076Z,102077.45
2023-01-12T07:24:50.750Z,102059.63
2023-01-12T07:27:18.454Z,102053.54
2023-01-12T07:29:47.715Z,102048.27
2023-01-12T07:32:15.473Z,102059.40
2023-01-12T07:34:43.258Z,102057.89
2023-01-12T07:37:10.944Z,102054.20
2023-01-12T07:39:40.184Z,102044.19
2023-01-12T07:42:25.796Z,102060.08
2023-01-12T07:44:53.822Z,102061.29
2023-01-12T07:47:21.890Z,102055.18
2023-01-12T07:49:49.657Z,102046.34
2023-01-12T07:52:17.607Z,102056.06
2023-01-12T07:54:45.325Z,102062.17
2023-01-12T07:57:13.461Z,102063.41
2023-01-12T07:59:41.269Z,102067.93
2023-01-12T08:02:17.625Z,102058.97
2023-01-12T08:04:46.183Z,102053.70
2023-01-12T08:07:14.988Z,102056.95
2023-01-12T08:09:42.780Z,102063.05
2023-01-12T08:12:10.596Z,102055.30
2023-01-12T08:14:40.097Z,102062.17
2023-01-12T08:17:12.431Z,102057.73
2023-01-12T08:19:45.269Z,102063.41
2023-01-12T08:22:22.330Z,102050.73
2023-01-12T08:24:55.717Z,102043.41
2023-01-12T08:27:26.672Z,102044.65
2023-01-12T08:30:02.719Z,102052.40
2023-01-12T08:32:31.155Z,102055.54
2023-01-12T08:35:02.310Z,102051.97
2023-01-12T08:37:32.435Z,102045.07
2023-01-12T08:40:00.384Z,102053.15
2023-01-12T08:42:31.633Z,102051.61
2023-01-12T08:44:59.510Z,102052.40
2023-01-12T08:47:29.431Z,102049.20
2023-01-12T08:49:58.589Z,102043.05
2023-01-12T08:52:26.784Z,102040.98
2023-01-12T08:54:54.549Z,102045.89
2023-01-12T08:57:22.471Z,102050.27
2023-01-12T08:59:50.429Z,102057.95
2023-01-12T09:02:18.427Z,102055.44
2023-01-12T09:04:46.362Z,102057.53
2023-01-12T09:07:15.297Z,102070.94
2023-01-12T09:09:43.069Z,102075.38
2023-01-12T09:12:10.913Z,102070.87
2023-01-12T09:14:39.853Z,102075.68
2023-01-12T09:17:08.591Z,102076.04
2023-01-12T09:19:36.327Z,102080.06
2023-01-12T09:22:04.013Z,102080.36
2023-01-12T09:24:31.868Z,102076.27
2023-01-12T09:26:59.600Z,102073.75
2023-01-12T09:29:27.391Z,102072.90
2023-01-12T09:31:55.185Z,102066.75
2023-01-12T09:34:22.986Z,102064.63
2023-01-12T09:36:53.414Z,102053.57
2023-01-12T09:39:28.738Z,102048.31
2023-01-12T09:42:15.967Z,102063.38
2023-01-12T09:45:05.942Z,102071.85
2023-01-12T09:47:50.419Z,102070.97
2023-01-12T09:50:26.398Z,102070.55
2023-01-12T09:52:57.671Z,102069.66
2023-01-12T09:55:28.398Z,102078.03
2023-01-12T09:58:30.482Z,102078.75
2023-01-12T10:01:00.505Z,102081.17
2023-01-12T10:03:39.484Z,102072.28
2023-01-12T10:06:09.966Z,102075.84
2023-01-12T10:08:42.661Z,102060.77
2023-01-12T10:11:23.458Z,102065.58
2023-01-12T10:14:15.957Z,102065.87
2023-01-12T10:17:05.464Z,102064.27
2023-01-12T10:19:50.614Z,102066.66
2023-01-12T10:22:38.712Z,102069.07
2023-01-12T10:25:07.626Z,102072.28
2023-01-12T10:27:42.030Z,102070.25
2023-01-12T10:30:18.539Z,102062.47
2023-01-12T10:32:46.911Z,102082.45
2023-01-12T10:35:21.268Z,102078.33
2023-01-12T10:37:52.920Z,102078.69
2023-01-12T10:40:31.538Z,102073.95
2023-01-12T10:43:20.749Z,102071.56
2023-01-12T10:46:23.529Z,102052.04
2023-01-12T10:48:56.138Z,102055.24
2023-01-12T10:51:34.690Z,102051.61
2023-01-12T10:54:12.689Z,102049.20
2023-01-12T10:56:43.869Z,102052.40
2023-01-12T10:59:14.567Z,102048.77
2023-01-12T11:01:53.444Z,102046.67
2023-01-12T11:04:24.490Z,102047.49
2023-01-12T11:07:04.935Z,102045.43
2023-01-12T11:09:33.078Z,102040.10
2023-01-12T11:12:03.892Z,102044.09
2023-01-12T11:14:35.179Z,102043.30
2023-01-12T11:17:18.017Z,102036.38
2023-01-12T11:19:49.007Z,102020.52
2023-01-12T11:22:25.382Z,102013.09
2023-01-12T11:25:07.863Z,102005.34
2023-01-12T11:27:58.608Z,101988.56
2023-01-12T11:30:42.352Z,101976.30
2023-01-12T11:33:48.296Z,101961.66
2023-01-12T11:36:20.580Z,101953.80
2023-01-12T11:38:55.821Z,101946.88
2023-01-12T11:41:27.567Z,101940.59
2023-01-12T11:44:13.109Z,101951.59
2023-01-12T11:46:44.811Z,101940.17
2023-01-12T11:49:29.232Z,101942.46
2023-01-12T11:52:00.013Z,101939.98
2023-01-12T11:54:29.878Z,101933.47
2023-01-12T11:57:09.571Z,101935.85
2023-01-12T11:59:37.190Z,101930.95
2023-01-12T12:02:14.209Z,101931.67
2023-01-12T12:04:50.655Z,101934.05
2023-01-12T12:07:27.426Z,101929.05
2023-01-12T12:10:16.478Z,101930.66
2023-01-12T12:13:34.890Z,101924.48
2023-01-12T12:16:17.794Z,101924.87
2023-01-12T12:18:57.754Z,101925.55
2023-01-12T12:21:31.111Z,101910.74
2023-01-12T12:24:24.680Z,101916.79
2023-01-12T12:27:03.766Z,101911.33
2023-01-12T12:29:51.579Z,101906.75
2023-01-12T12:32:46.939Z,101900.96
2023-01-12T12:35:31.267Z,101896.41
2023-01-12T12:38:21.893Z,101904.43
2023-01-12T12:41:32.562Z,101899.06
2023-01-12T12:44:33.909Z,101896.55
2023-01-12T12:47:30.684Z,101897.59
2023-01-12T12:50:01.276Z,101899.98
2023-01-12T12:52:37.215Z,101895.86
2023-01-12T12:55:06.177Z,101904.33
2023-01-12T12:57:54.172Z,101894.85
2023-01-12T13:00:43.639Z,101900.93
2023-01-12T13:03:11.599Z,101893.05
2023-01-12T13:05:42.525Z,101889.75
2023-01-12T13:08:21.228Z,101888.02
2023-01-12T13:10:56.107Z,101891.68
2023-01-12T13:13:28.956Z,101896.48
2023-01-12T13:16:21.559Z,101883.80
2023-01-12T13:18:52.165Z,101886.18
2023-01-12T13:21:30.404Z,101893.05
2023-01-12T13:24:19.178Z,101892.59
2023-01-12T13:26:48.113Z,101878.66
2023-01-12T13:29:24.962Z,101873.73
2023-01-12T13:32:11.756Z,101869.96
2023-01-12T13:34:39.490Z,101878.89
2023-01-12T13:37:35.314Z,101884.61
2023-01-12T13:40:23.130Z,101885.07
2023-01-12T13:43:10.469Z,101875.81
2023-01-12T13:45:38.578Z,101884.38
2023-01-12T13:48:08.577Z,101881.87
2023-01-12T13:50:37.450Z,101878.53
2023-01-12T13:53:06.112Z,101872.80
2023-01-12T13:55:36.628Z,101878.07
2023-01-12T13:58:08.067Z,101866.66
2023-01-12T14:00:36.329Z,101873.04
2023-01-12T14:03:05.899Z,101865.71
2023-01-12T14:05:33.732Z,101875.88
2023-01-12T14:08:27.790Z,101871.01
2023-01-12T14:11:16.604Z,101870.20
2023-01-12T14:13:54.091Z,101862.21
2023-01-12T14:16:40.600Z,101862.97
2023-01-12T14:19:28.808Z,101869.51
2023-01-12T14:21:59.247Z,101865.62
2023-01-12T14:24:27.469Z,101858.29
2023-01-12T14:26:55.569Z,101867.25
2023-01-12T14:29:23.435Z,101865.38
2023-01-12T14:31:54.579Z,101859.80
2023-01-12T14:34:27.570Z,101868.82
2023-01-12T14:36:56.888Z,101867.67
2023-01-12T14:39:29.072Z,101852.60
2023-01-12T14:42:17.148Z,101852.01
2023-01-12T14:45:13.166Z,101860.58
2023-01-12T14:47:41.335Z,101851.00
2023-01-12T14:50:20.349Z,101840.01
2023-01-12T14:52:49.407Z,101841.28
2023-01-12T14:55:27.142Z,101844.13
2023-01-12T14:58:01.827Z,101842.98
2023-01-12T15:00:33.137Z,101853.29
2023-01-12T15:03:03.765Z,101837.85
2023-01-12T15:05:34.395Z,101844.09
2023-01-12T15:08:09.537Z,101841.25
2023-01-12T15:10:40.857Z,101842.49
2023-01-12T15:13:33.189Z,101840.56
2023-01-12T15:16:20.581Z,101828.80
2023-01-12T15:19:06.910Z,101832.52
2023-01-12T15:21:54.572Z,101836.19
2023-01-12T15:24:40.847Z,101842.76
2023-01-12T15:27:09.802Z,101836.38
2023-01-12T15:29:37.818Z,101834.02
2023-01-12T15:32:06.842Z,101830.82
2023-01-12T15:34:35.132Z,101829.19
2023-01-12T15:37:02.923Z,101822.71
2023-01-12T15:39:30.713Z,101829.32
2023-01-12T15:42:17.321Z,101830.92
2023-01-12T15:44:50.345Z,101821.63
2023-01-12T15:47:20.131Z,101826.99
2023-01-12T15:49:49.963Z,101819.70
2023-01-12T15:52:22.844Z,101816.95
2023-01-12T15:54:51.114Z,101818.20
2023-01-12T15:57:19.307Z,101812.15
2023-01-12T15:59:47.075Z,101806.10
2023-01-12T16:02:20.791Z,101812.25
2023-01-12T16:04:48.610Z,101804.14
2023-01-12T16:07:16.431Z,101797.17
2023-01-12T16:09:46.745Z,101800.51
2023-01-12T16:12:16.104Z,101809.50
2023-01-12T16:14:43.897Z,101806.30
2023-01-12T16:17:11.724Z,101813.62
2023-01-12T16:19:42.301Z,101810.41
2023-01-12T16:22:22.158Z,101809.99
2023-01-12T16:24:54.196Z,101800.61
2023-01-12T16:27:24.032Z,101805.48
2023-01-12T16:29:51.796Z,101799.00
2023-01-12T16:32:24.200Z,101799.37
2023-01-12T16:34:51.921Z,101799.00
2023-01-12T16:37:24.074Z,101800.61
2023-01-12T16:39:51.758Z,101807.11
2023-01-12T16:42:19.449Z,101800.15
2023-01-12T16:44:50.691Z,101809.17
2023-01-12T16:47:21.280Z,101809.60
2023-01-12T16:49:51.224Z,101812.45
2023-01-12T16:52:21.602Z,101801.52
2023-01-12T16:54:49.415Z,101803.13
2023-01-12T16:57:18.743Z,101797.86
2023-01-12T16:59:47.266Z,101789.72
2023-01-12T17:02:17.860Z,101788.15
2023-01-12T17:04:46.892Z,101788.60
2023-01-12T17:07:14.855Z,101777.65
2023-01-12T17:09:42.831Z,101775.69
2023-01-12T17:12:11.405Z,101767.91
2023-01-12T17:14:39.273Z,101776.60
2023-01-12T17:17:09.638Z,101786.77
2023-01-12T17:19:39.656Z,101769.64
2023-01-12T17:22:08.951Z,101761.10
2023-01-12T17:24:41.015Z,101770.09
2023-01-12T17:27:11.092Z,101777.39
2023-01-12T17:29:38.915Z,101777.39
2023-01-12T17:32:08.232Z,101774.97
2023-01-12T17:34:39.233Z,101779.91
2023-01-12T17:37:10.712Z,101772.13
2023-01-12T17:39:41.010Z,101765.29
2023-01-12T17:42:27.590Z,101774.97
2023-01-12T17:44:55.419Z,101777.48
2023-01-12T17:47:23.557Z,101780.82
2023-01-12T17:49:51.400Z,101778.77
2023-01-12T17:52:19.408Z,101766.56
2023-01-12T17:54:47.281Z,101768.59
2023-01-12T17:57:15.438Z,101769.41
2023-01-12T17:59:43.279Z,101765.75
2023-01-12T18:02:12.763Z,101756.36
2023-01-12T18:04:40.641Z,101755.58
2023-01-12T18:07:08.330Z,101750.22
2023-01-12T18:09:37.887Z,101751.49
2023-01-12T18:12:06.341Z,101749.89
2023-01-12T18:14:34.444Z,101760.84
2023-01-12T18:17:02.233Z,101751.49
2023-01-12T18:19:31.082Z,101744.85
2023-01-12T18:21:58.731Z,101738.02
2023-01-12T18:24:26.422Z,101738.02
2023-01-12T18:26:54.207Z,101740.08
2023-01-12T18:29:21.911Z,101740.90
2023-01-12T18:31:49.730Z,101740.50
2023-01-12T18:34:20.684Z,101737.66
2023-01-12T18:36:49.219Z,101721.80
2023-01-12T18:39:22.364Z,101723.86
2023-01-12T18:42:10.017Z,101714.15
2023-01-12T18:44:39.533Z,101715.42
2023-01-12T18:47:25.991Z,101708.09
2023-01-12T18:49:58.614Z,101709.80
2023-01-12T18:52:45.254Z,101711.07
2023-01-12T18:55:13.129Z,101718.04
2023-01-12T18:57:40.940Z,101722.91
2023-01-12T19:00:19.171Z,101716.44
2023-01-12T19:02:48.147Z,101719.70
2023-01-12T19:05:46.178Z,101707.54
2023-01-12T19:08:32.513Z,101710.38
2023-01-12T19:11:11.976Z,101697.34
2023-01-12T19:13:58.222Z,101695.41
2023-01-12T19:16:44.581Z,101695.73
2023-01-12T19:19:12.934Z,101692.56
2023-01-12T19:21:59.535Z,101696.65
2023-01-12T19:24:45.538Z,101698.74
2023-01-12T19:27:32.733Z,101700.31
2023-01-12T19:30:00.565Z,101712.19
2023-01-12T19:32:28.436Z,101714.21
2023-01-12T19:35:02.226Z,101707.73
2023-01-12T19:37:33.817Z,101698.84
2023-01-12T19:40:10.468Z,101706.13
2023-01-12T19:42:56.741Z,101707.38
2023-01-12T19:45:24.558Z,101701.33
2023-01-12T19:47:53.123Z,101695.97
2023-01-12T19:50:21.174Z,101692.66
2023-01-12T19:52:48.821Z,101680.83
2023-01-12T19:55:16.552Z,101673.86
2023-01-12T19:57:44.490Z,101674.19
2023-01-12T20:00:16.422Z,101683.57
2023-01-12T20:02:45.443Z,101661.89
2023-01-12T20:05:18.285Z,101670.46
2023-01-12T20:07:46.005Z,101670.91
2023-01-12T20:10:13.765Z,101677.75
2023-01-12T20:12:41.499Z,101674.91
2023-01-12T20:15:09.896Z,101670.79
2023-01-12T20:17:37.616Z,101680.14
2023-01-12T20:20:09.408Z,101683.34
2023-01-12T20:22:37.204Z,101671.15
2023-01-12T20:25:06.395Z,101674.32
2023-01-12T20:27:35.078Z,101664.51
2023-01-12T20:30:03.574Z,101664.18
2023-01-12T20:32:32.915Z,101662.16
2023-01-12T20:35:04.579Z,101668.30
2023-01-12T20:37:34.704Z,101661.76
2023-01-12T20:40:03.662Z,101657.67
2023-01-12T20:42:32.802Z,101669.22
2023-01-12T20:45:01.481Z,101674.91
2023-01-12T20:47:32.244Z,101661.44
2023-01-12T20:50:00.089Z,101677.75
2023-01-12T20:52:28.561Z,101668.83
2023-01-12T20:54:56.711Z,101666.34
2023-01-12T20:57:24.406Z,101672.84
2023-01-12T20:59:52.138Z,101667.13
2023-01-12T21:02:24.926Z,101666.34
2023-01-12T21:04:53.417Z,101671.57
2023-01-12T21:07:21.871Z,101657.09
2023-01-12T21:09:49.775Z,101663.13
2023-01-12T21:12:17.531Z,101661.53
2023-01-12T21:14:45.256Z,101657.18
2023-01-12T21:17:12.972Z,101653.23
2023-01-12T21:19:40.731Z,101645.12
2023-01-12T21:22:08.410Z,101652.96
2023-01-12T21:24:36.216Z,101668.10
2023-01-12T21:27:03.953Z,101653.52
2023-01-12T21:29:31.786Z,101656.82
2023-01-12T21:31:59.603Z,101650.87
2023-01-12T21:34:27.335Z,101646.42
2023-01-12T21:36:54.991Z,101644.04
2023-01-12T21:39:22.731Z,101648.59
2023-01-12T21:42:08.758Z,101644.59
2023-01-12T21:44:36.694Z,101648.35
2023-01-12T21:47:04.441Z,101655.29
2023-01-12T21:49:32.074Z,101645.58
2023-01-12T21:51:59.835Z,101652.96
2023-01-12T21:54:27.581Z,101648.19
2023-01-12T21:56:55.329Z,101651.04
2023-01-12T21:59:23.122Z,101640.08
2023-01-12T22:01:50.869Z,101626.31
2023-01-12T22:04:18.678Z,101621.48
2023-01-12T22:06:46.376Z,101613.40
2023-01-12T22:09:14.119Z,101615.46
2023-01-12T22:11:41.877Z,101623.99
2023-01-12T22:14:09.658Z,101631.41
2023-01-12T22:16:37.364Z,101644.04
2023-01-12T22:19:05.197Z,101644.04
2023-01-12T22:21:32.830Z,101640.41
2023-01-12T22:24:00.495Z,101645.28
2023-01-12T22:26:30.940Z,101645.38
2023-01-12T22:28:58.801Z,101647.87
2023-01-12T22:31:26.918Z,101644.70
2023-01-12T22:34:03.748Z,101644.79
2023-01-12T22:36:34.916Z,101652.96
2023-01-12T22:39:02.958Z,101645.67
2023-01-12T22:41:31.150Z,101658.75
2023-01-12T22:43:58.882Z,101661.96
2023-01-12T22:46:28.011Z,101664.02
2023-01-12T22:48:57.768Z,101671.31
2023-01-12T22:51:27.474Z,101676.58
2023-01-12T22:53:56.725Z,101666.77
2023-01-12T22:56:24.537Z,101658.23
2023-01-12T22:58:54.792Z,101656.17
2023-01-12T23:01:24.351Z,101648.78
2023-01-12T23:03:59.382Z,101650.74
2023-01-12T23:06:27.944Z,101629.09
2023-01-12T23:08:55.754Z,101625.34
2023-01-12T23:11:26.573Z,101624.09
2023-01-12T23:13:58.071Z,101608.62
2023-01-12T23:16:27.102Z,101613.85
2023-01-12T23:18:56.391Z,101617.52
2023-01-12T23:21:27.849Z,101624.09
2023-01-12T23:23:58.644Z,101613.49
2023-01-12T23:26:29.518Z,101616.34
2023-01-12T23:29:01.197Z,101613.95
2023-01-12T23:31:31.667Z,101612.81
2023-01-12T23:33:59.403Z,101606.20
2023-01-12T23:36:29.375Z,101620.10
2023-01-12T23:38:59.527Z,101621.80
2023-01-12T23:41:29.099Z,101616.11
2023-01-12T23:44:00.357Z,101610.48
2023-01-12T23:46:30.152Z,101614.61
2023-01-12T23:48:58.870Z,101611.08
2023-01-12T23:51:28.382Z,101610.00
2023-01-12T23:54:00.776Z,101599.96
2023-01-12T23:56:33.834Z,101585.47
2023-01-12T23:59:01.792Z,101576.22
